createdAt,value
2018-12-01T00:03:28.579Z," 8.52"
2018-12-01T00:08:24.482Z," 8.37"
2018-12-01T00:13:21.237Z," 8.41"
2018-12-01T00:18:20.361Z," 8.41"
2018-12-01T00:23:15.218Z," 8.26"
2018-12-01T00:28:10.859Z," 8.37"
2018-12-01T00:33:06.563Z," 8.19"
2018-12-01T00:38:02.588Z," 8.16"
2018-12-01T00:42:58.217Z," 8.15"
2018-12-01T00:47:55.896Z," 8.15"
2018-12-01T00:52:51.630Z," 8.12"
2018-12-01T00:57:47.039Z," 8.23"
2018-12-01T01:02:44.227Z," 8.19"
2018-12-01T01:07:39.660Z," 8.19"
2018-12-01T01:12:37.024Z," 8.26"
2018-12-01T01:17:32.121Z," 8.23"
2018-12-01T01:22:27.899Z," 8.16"
2018-12-01T01:27:23.650Z," 8.12"
2018-12-01T01:32:19.354Z," 7.94"
2018-12-01T01:37:14.927Z," 7.87"
2018-12-01T01:42:10.514Z," 7.90"
2018-12-01T01:47:06.232Z," 7.82"
2018-12-01T01:52:02.940Z," 7.77"
2018-12-01T01:56:59.329Z," 7.67"
2018-12-01T02:01:54.667Z," 7.73"
2018-12-01T02:06:50.696Z," 7.60"
2018-12-01T02:11:46.119Z," 7.61"
2018-12-01T02:16:42.140Z," 7.58"
2018-12-01T02:21:37.839Z," 7.53"
2018-12-01T02:26:33.634Z," 7.50"
2018-12-01T02:31:29.192Z," 7.54"
2018-12-01T02:36:25.546Z," 7.53"
2018-12-01T02:41:22.856Z," 7.50"
2018-12-01T02:46:19.177Z," 7.40"
2018-12-01T02:51:14.523Z," 7.43"
2018-12-01T02:56:10.258Z," 7.42"
2018-12-01T03:01:05.974Z," 7.32"
2018-12-01T03:06:01.561Z," 7.32"
2018-12-01T03:10:57.404Z," 7.31"
2018-12-01T03:15:52.934Z," 7.15"
2018-12-01T03:20:48.530Z," 7.20"
2018-12-01T03:25:44.148Z," 7.21"
2018-12-01T03:30:40.100Z," 7.14"
2018-12-01T03:35:35.597Z," 7.18"
2018-12-01T03:40:31.276Z," 7.13"
2018-12-01T03:45:27.015Z," 7.13"
2018-12-01T03:50:22.526Z," 7.13"
2018-12-01T03:55:18.226Z," 7.11"
2018-12-01T04:00:13.795Z," 7.14"
2018-12-01T04:05:09.692Z," 7.05"
2018-12-01T04:10:05.361Z," 7.13"
2018-12-01T04:15:02.131Z," 7.15"
2018-12-01T04:19:57.609Z," 7.18"
2018-12-01T04:24:53.167Z," 7.14"
2018-12-01T04:29:48.887Z," 7.18"
2018-12-01T04:34:44.417Z," 7.17"
2018-12-01T04:39:40.058Z," 7.35"
2018-12-01T04:44:35.789Z," 7.39"
2018-12-01T04:49:31.811Z," 7.42"
2018-12-01T04:54:27.604Z," 7.50"
2018-12-01T04:59:24.144Z," 7.50"
2018-12-01T05:04:20.919Z," 7.54"
2018-12-01T05:09:16.919Z," 7.57"
2018-12-01T05:14:13.796Z," 7.60"
2018-12-01T05:19:09.092Z," 7.57"
2018-12-01T05:24:04.708Z," 7.53"
2018-12-01T05:29:01.395Z," 7.51"
2018-12-01T05:33:57.386Z," 7.53"
2018-12-01T05:38:53.026Z," 7.56"
2018-12-01T05:43:49.925Z," 7.58"
2018-12-01T05:48:45.752Z," 7.58"
2018-12-01T05:53:41.710Z," 7.61"
2018-12-01T05:58:38.408Z," 7.66"
2018-12-01T06:03:34.935Z," 7.76"
2018-12-01T06:08:30.341Z," 7.75"
2018-12-01T06:13:26.244Z," 7.67"
2018-12-01T06:18:22.101Z," 7.75"
2018-12-01T06:23:17.833Z," 7.80"
2018-12-01T06:28:13.542Z," 7.83"
2018-12-01T06:33:09.346Z," 7.83"
2018-12-01T06:38:04.856Z," 7.83"
2018-12-01T06:43:00.663Z," 7.76"
2018-12-01T06:47:56.731Z," 7.83"
2018-12-01T06:52:53.677Z," 7.82"
2018-12-01T06:57:49.027Z," 7.90"
2018-12-01T07:02:45.451Z," 7.82"
2018-12-01T07:07:41.350Z," 7.87"
2018-12-01T07:12:37.766Z," 7.83"
2018-12-01T07:17:33.803Z," 7.88"
2018-12-01T07:22:29.555Z," 7.93"
2018-12-01T07:27:25.752Z," 7.95"
2018-12-01T07:32:21.839Z," 7.98"
2018-12-01T07:37:17.571Z," 7.98"
2018-12-01T07:42:13.086Z," 7.97"
2018-12-01T07:47:09.726Z," 7.97"
2018-12-01T07:52:05.624Z," 8.10"
2018-12-01T07:57:02.318Z," 8.19"
2018-12-01T08:01:57.767Z," 8.10"
2018-12-01T08:06:53.690Z," 8.18"
2018-12-01T08:11:50.466Z," 8.27"
2018-12-01T08:16:45.805Z," 8.33"
2018-12-01T08:21:41.442Z," 8.51"
2018-12-01T08:26:37.349Z," 8.45"
2018-12-01T08:31:34.110Z," 8.46"
2018-12-01T08:36:31.215Z," 8.52"
2018-12-01T08:41:26.654Z," 8.49"
2018-12-01T08:46:22.480Z," 8.70"
2018-12-01T08:51:18.114Z," 8.76"
2018-12-01T08:56:14.542Z," 8.71"
2018-12-01T09:01:10.362Z," 8.84"
2018-12-01T09:06:06.589Z," 8.97"
2018-12-01T09:11:02.732Z," 9.02"
2018-12-01T09:15:58.365Z," 9.10"
2018-12-01T09:20:53.930Z," 9.28"
2018-12-01T09:25:49.686Z," 9.26"
2018-12-01T09:30:45.629Z," 9.39"
2018-12-01T09:35:41.313Z," 9.34"
2018-12-01T09:40:37.089Z," 9.32"
2018-12-01T09:45:32.628Z," 9.28"
2018-12-01T09:50:29.481Z," 9.32"
2018-12-01T09:55:25.175Z," 9.46"
2018-12-01T10:00:20.695Z," 9.54"
2018-12-01T10:05:17.939Z," 9.48"
2018-12-01T10:10:14.543Z," 9.62"
2018-12-01T10:15:09.814Z," 9.61"
2018-12-01T10:20:05.537Z," 9.69"
2018-12-01T10:25:02.151Z," 9.62"
2018-12-01T10:29:58.163Z," 9.69"
2018-12-01T10:34:55.103Z," 9.72"
2018-12-01T10:39:50.976Z," 9.97"
2018-12-01T10:44:46.665Z," 9.94"
2018-12-01T10:49:42.520Z," 9.80"
2018-12-01T10:54:40.282Z," 9.95"
2018-12-01T10:59:35.738Z,10.22
2018-12-01T11:04:31.844Z,10.40
2018-12-01T11:09:28.490Z,10.49
2018-12-01T11:14:24.911Z,10.59
2018-12-01T11:19:21.079Z,10.41
2018-12-01T11:24:17.023Z,10.44
2018-12-01T11:29:13.478Z,10.38
2018-12-01T11:34:09.508Z,10.54
2018-12-01T11:39:05.277Z,10.51
2018-12-01T11:44:00.776Z,10.56
2018-12-01T11:48:57.525Z,10.51
2018-12-01T11:53:53.922Z,10.41
2018-12-01T11:58:50.399Z,10.56
2018-12-01T12:03:45.813Z,10.49
2018-12-01T12:08:40.969Z,10.46
2018-12-01T12:13:37.216Z,10.38
2018-12-01T12:18:32.945Z,10.40
2018-12-01T12:23:28.689Z,10.49
2018-12-01T12:28:24.518Z,10.56
2018-12-01T12:33:20.991Z,10.53
2018-12-01T12:38:17.486Z,10.61
2018-12-01T12:43:13.690Z,10.56
2018-12-01T12:48:09.326Z,10.56
2018-12-01T12:53:05.031Z,10.48
2018-12-01T12:58:00.703Z,10.54
2018-12-01T13:02:56.535Z,10.46
2018-12-01T13:07:52.402Z,10.49
2018-12-01T13:12:47.997Z,10.54
2018-12-01T13:17:44.933Z,10.59
2018-12-01T13:22:40.657Z,10.57
2018-12-01T13:27:37.399Z,10.60
2018-12-01T13:32:34.061Z,10.60
2018-12-01T13:37:29.904Z,10.60
2018-12-01T13:42:25.570Z,10.57
2018-12-01T13:47:22.316Z,10.53
2018-12-01T13:52:17.720Z,10.51
2018-12-01T13:57:13.588Z,10.49
2018-12-01T14:02:09.229Z,10.54
2018-12-01T14:07:06.172Z,10.57
2018-12-01T14:12:02.357Z,10.53
2018-12-01T14:16:58.069Z,10.60
2018-12-01T14:21:53.519Z,10.51
2018-12-01T14:26:49.290Z,10.49
2018-12-01T14:31:44.878Z,10.46
2018-12-01T14:36:40.430Z,10.42
2018-12-01T14:41:36.068Z,10.42
2018-12-01T14:46:32.005Z,10.41
2018-12-01T14:51:27.912Z,10.33
2018-12-01T14:56:23.648Z,10.34
2018-12-01T15:01:20.497Z,10.40
2018-12-01T15:06:15.994Z,10.26
2018-12-01T15:11:11.855Z,10.33
2018-12-01T15:16:08.526Z,10.16
2018-12-01T15:21:03.957Z,10.22
2018-12-01T15:25:59.569Z,10.10
2018-12-01T15:30:55.005Z,10.10
2018-12-01T15:35:50.546Z,10.09
2018-12-01T15:40:46.146Z,10.01
2018-12-01T15:45:41.856Z,10.02
2018-12-01T15:50:39.113Z,10.04
2018-12-01T15:55:34.958Z,10.07
2018-12-01T16:00:31.975Z,10.02
2018-12-01T16:05:27.558Z,10.07
2018-12-01T16:10:23.906Z,10.05
2018-12-01T16:15:21.627Z,10.22
2018-12-01T16:20:17.197Z,10.13
2018-12-01T16:25:12.863Z,10.30
2018-12-01T16:30:08.735Z,10.28
2018-12-01T16:35:04.676Z,10.38
2018-12-01T16:40:01.411Z,10.31
2018-12-01T16:44:57.310Z,10.33
2018-12-01T16:49:52.767Z,10.34
2018-12-01T16:54:49.764Z,10.34
2018-12-01T16:59:45.093Z,10.28
2018-12-01T17:04:40.504Z,10.30
2018-12-01T17:09:37.185Z,10.28
2018-12-01T17:14:32.444Z,10.26
2018-12-01T17:19:28.482Z,10.16
2018-12-01T17:24:24.101Z,10.16
2018-12-01T17:29:20.097Z,10.17
2018-12-01T17:34:16.914Z,10.20
2018-12-01T17:39:12.512Z,10.05
2018-12-01T17:44:08.363Z,10.12
2018-12-01T17:49:05.242Z,10.13
2018-12-01T17:54:00.951Z,10.15
2018-12-01T17:58:57.610Z,10.05
2018-12-01T18:03:52.987Z,10.05
2018-12-01T18:08:49.724Z," 9.98"
2018-12-01T18:13:47.129Z," 9.92"
2018-12-01T18:18:43.329Z,10.02
2018-12-01T18:23:39.017Z," 9.95"
2018-12-01T18:28:35.375Z," 9.91"
2018-12-01T18:33:31.054Z," 9.80"
2018-12-01T18:38:27.625Z," 9.77"
2018-12-01T18:43:23.156Z," 9.80"
2018-12-01T18:48:18.814Z," 9.59"
2018-12-01T18:53:14.725Z," 9.72"
2018-12-01T18:58:11.438Z," 9.73"
2018-12-01T19:03:07.165Z," 9.69"
2018-12-01T19:08:02.696Z," 9.51"
2018-12-01T19:12:58.611Z," 9.54"
2018-12-01T19:17:54.170Z," 9.62"
2018-12-01T19:22:50.680Z," 9.64"
2018-12-01T19:27:46.395Z," 9.69"
2018-12-01T19:32:43.231Z," 9.59"
2018-12-01T19:37:38.832Z," 9.61"
2018-12-01T19:42:35.325Z," 9.55"
2018-12-01T19:47:31.053Z," 9.58"
2018-12-01T19:52:27.624Z," 9.59"
2018-12-01T19:57:23.318Z," 9.66"
2018-12-01T20:02:19.142Z," 9.74"
2018-12-01T20:07:15.609Z," 9.79"
2018-12-01T20:12:11.051Z," 9.89"
2018-12-01T20:17:06.934Z," 9.91"
2018-12-01T20:22:02.783Z," 9.86"
2018-12-01T20:27:04.446Z," 9.91"
2018-12-01T20:31:58.856Z," 9.83"
2018-12-01T20:36:55.806Z," 9.80"
2018-12-01T20:41:51.074Z," 9.65"
2018-12-01T20:46:48.048Z," 9.59"
2018-12-01T20:51:43.792Z," 9.59"
2018-12-01T20:56:39.465Z," 9.47"
2018-12-01T21:01:35.281Z," 9.47"
2018-12-01T21:06:31.703Z," 9.61"
2018-12-01T21:11:27.622Z," 9.55"
2018-12-01T21:16:24.746Z," 9.54"
2018-12-01T21:21:21.210Z," 9.73"
2018-12-01T21:26:16.772Z," 9.55"
2018-12-01T21:31:13.501Z," 9.58"
2018-12-01T21:36:08.883Z," 9.55"
2018-12-01T21:41:04.523Z," 9.56"
2018-12-01T21:46:00.839Z," 9.47"
2018-12-01T21:50:56.667Z," 9.65"
2018-12-01T21:55:52.424Z," 9.66"
2018-12-01T22:00:48.263Z," 9.66"
2018-12-01T22:05:44.275Z," 9.66"
2018-12-01T22:10:40.034Z," 9.80"
2018-12-01T22:15:35.851Z," 9.77"
2018-12-01T22:20:31.513Z," 9.95"
2018-12-01T22:25:27.554Z," 9.94"
2018-12-01T22:30:24.291Z," 9.98"
2018-12-01T22:35:21.049Z,10.04
2018-12-01T22:40:16.054Z,10.05
2018-12-01T22:45:11.908Z,10.02
2018-12-01T22:50:07.606Z,10.04
2018-12-01T22:55:03.901Z,10.02
2018-12-01T23:00:00.876Z,10.15
2018-12-01T23:04:57.008Z,10.13
2018-12-01T23:09:52.876Z,10.12
2018-12-01T23:14:48.570Z,10.13
2018-12-01T23:19:44.536Z,10.17
2018-12-01T23:24:41.394Z,10.26
2018-12-01T23:29:38.133Z,10.23
2018-12-01T23:34:34.482Z,10.26
2018-12-01T23:39:30.724Z,10.31
2018-12-01T23:44:26.380Z,10.26
2018-12-01T23:49:23.351Z,10.30
2018-12-01T23:54:19.843Z,10.31
2018-12-01T23:59:17.174Z,10.15
